sensor_id;sensor_type;location;lat;lon;timestamp;P1;durP1;ratioP1;P2;durP2;ratioP2
3121;SDS011;1571;52.524;14.104;2023-02-20T00:02:15;6.20;;;1.40;;
3121;SDS011;1571;52.524;14.104;2023-02-20T00:04:45;2.40;;;1.27;;
3121;SDS011;1571;52.524;14.104;2023-02-20T00:07:14;6.40;;;1.70;;
3121;SDS011;1571;52.524;14.104;2023-02-20T00:09:42;1.50;;;1.00;;
3121;SDS011;1571;52.524;14.104;2023-02-20T00:12:11;7.70;;;1.70;;
3121;SDS011;1571;52.524;14.104;2023-02-20T00:14:40;2.90;;;1.93;;
3121;SDS011;1571;52.524;14.104;2023-02-20T00:17:08;3.93;;;1.30;;
3121;SDS011;1571;52.524;14.104;2023-02-20T00:19:36;1.67;;;1.33;;
3121;SDS011;1571;52.524;14.104;2023-02-20T00:22:04;3.30;;;1.40;;
3121;SDS011;1571;52.524;14.104;2023-02-20T00:24:32;5.40;;;2.13;;
3121;SDS011;1571;52.524;14.104;2023-02-20T00:27:01;3.10;;;1.10;;
3121;SDS011;1571;52.524;14.104;2023-02-20T00:29:31;4.17;;;1.30;;
3121;SDS011;1571;52.524;14.104;2023-02-20T00:32:00;5.47;;;1.80;;
3121;SDS011;1571;52.524;14.104;2023-02-20T00:34:31;3.00;;;1.57;;
3121;SDS011;1571;52.524;14.104;2023-02-20T00:36:59;2.80;;;1.27;;
3121;SDS011;1571;52.524;14.104;2023-02-20T00:39:27;4.33;;;2.30;;
3121;SDS011;1571;52.524;14.104;2023-02-20T00:41:55;5.40;;;1.93;;
3121;SDS011;1571;52.524;14.104;2023-02-20T00:44:24;2.23;;;1.23;;
3121;SDS011;1571;52.524;14.104;2023-02-20T00:46:54;3.33;;;1.70;;
3121;SDS011;1571;52.524;14.104;2023-02-20T00:49:22;1.80;;;1.70;;
3121;SDS011;1571;52.524;14.104;2023-02-20T00:51:51;4.53;;;1.50;;
3121;SDS011;1571;52.524;14.104;2023-02-20T00:54:19;1.47;;;1.37;;
3121;SDS011;1571;52.524;14.104;2023-02-20T00:56:47;1.50;;;1.40;;
3121;SDS011;1571;52.524;14.104;2023-02-20T00:59:16;8.53;;;1.90;;
3121;SDS011;1571;52.524;14.104;2023-02-20T01:01:44;3.90;;;1.80;;
3121;SDS011;1571;52.524;14.104;2023-02-20T01:04:14;2.40;;;1.60;;
3121;SDS011;1571;52.524;14.104;2023-02-20T01:06:42;2.20;;;2.00;;
3121;SDS011;1571;52.524;14.104;2023-02-20T01:09:11;2.37;;;1.80;;
3121;SDS011;1571;52.524;14.104;2023-02-20T01:11:40;2.50;;;2.00;;
3121;SDS011;1571;52.524;14.104;2023-02-20T01:14:09;3.53;;;2.10;;
3121;SDS011;1571;52.524;14.104;2023-02-20T01:16:42;5.50;;;2.23;;
3121;SDS011;1571;52.524;14.104;2023-02-20T01:19:11;3.93;;;2.73;;
3121;SDS011;1571;52.524;14.104;2023-02-20T01:21:41;3.07;;;2.10;;
3121;SDS011;1571;52.524;14.104;2023-02-20T01:24:10;4.27;;;2.33;;
3121;SDS011;1571;52.524;14.104;2023-02-20T01:26:39;2.40;;;2.20;;
3121;SDS011;1571;52.524;14.104;2023-02-20T01:29:07;3.97;;;2.63;;
3121;SDS011;1571;52.524;14.104;2023-02-20T01:31:36;6.13;;;2.33;;
3121;SDS011;1571;52.524;14.104;2023-02-20T01:34:07;4.43;;;2.87;;
3121;SDS011;1571;52.524;14.104;2023-02-20T01:36:36;6.33;;;1.80;;
3121;SDS011;1571;52.524;14.104;2023-02-20T01:39:05;2.90;;;2.17;;
3121;SDS011;1571;52.524;14.104;2023-02-20T01:41:33;6.23;;;2.70;;
3121;SDS011;1571;52.524;14.104;2023-02-20T01:44:02;4.73;;;3.43;;
3121;SDS011;1571;52.524;14.104;2023-02-20T01:46:43;4.73;;;2.37;;
3121;SDS011;1571;52.524;14.104;2023-02-20T01:49:16;3.87;;;2.83;;
3121;SDS011;1571;52.524;14.104;2023-02-20T01:51:49;4.97;;;2.70;;
3121;SDS011;1571;52.524;14.104;2023-02-20T01:54:22;4.63;;;2.90;;
3121;SDS011;1571;52.524;14.104;2023-02-20T01:56:52;3.90;;;2.57;;
3121;SDS011;1571;52.524;14.104;2023-02-20T01:59:24;3.40;;;3.10;;
3121;SDS011;1571;52.524;14.104;2023-02-20T02:01:55;4.63;;;2.57;;
3121;SDS011;1571;52.524;14.104;2023-02-20T02:04:23;6.00;;;3.40;;
3121;SDS011;1571;52.524;14.104;2023-02-20T02:06:53;7.90;;;3.63;;
3121;SDS011;1571;52.524;14.104;2023-02-20T02:09:36;8.90;;;2.73;;
3121;SDS011;1571;52.524;14.104;2023-02-20T02:12:08;9.47;;;3.30;;
3121;SDS011;1571;52.524;14.104;2023-02-20T02:14:37;9.03;;;3.13;;
3121;SDS011;1571;52.524;14.104;2023-02-20T02:17:12;4.17;;;3.00;;
3121;SDS011;1571;52.524;14.104;2023-02-20T02:20:08;3.47;;;2.40;;
3121;SDS011;1571;52.524;14.104;2023-02-20T02:23:18;4.60;;;2.87;;
3121;SDS011;1571;52.524;14.104;2023-02-20T02:26:21;5.20;;;2.87;;
3121;SDS011;1571;52.524;14.104;2023-02-20T02:29:22;6.03;;;4.47;;
3121;SDS011;1571;52.524;14.104;2023-02-20T02:32:15;10.87;;;4.40;;
3121;SDS011;1571;52.524;14.104;2023-02-20T02:35:03;6.20;;;3.40;;
3121;SDS011;1571;52.524;14.104;2023-02-20T02:37:48;13.63;;;8.57;;
3121;SDS011;1571;52.524;14.104;2023-02-20T02:40:22;10.00;;;4.63;;
3121;SDS011;1571;52.524;14.104;2023-02-20T02:42:57;7.67;;;5.30;;
3121;SDS011;1571;52.524;14.104;2023-02-20T02:45:34;5.33;;;2.77;;
3121;SDS011;1571;52.524;14.104;2023-02-20T02:48:09;15.30;;;8.63;;
3121;SDS011;1571;52.524;14.104;2023-02-20T02:50:41;12.13;;;8.13;;
3121;SDS011;1571;52.524;14.104;2023-02-20T02:53:15;17.70;;;10.20;;
3121;SDS011;1571;52.524;14.104;2023-02-20T02:55:43;14.00;;;7.20;;
3121;SDS011;1571;52.524;14.104;2023-02-20T02:58:11;6.40;;;4.20;;
3121;SDS011;1571;52.524;14.104;2023-02-20T03:00:42;11.57;;;7.50;;
3121;SDS011;1571;52.524;14.104;2023-02-20T03:03:17;8.73;;;5.50;;
3121;SDS011;1571;52.524;14.104;2023-02-20T03:05:49;6.47;;;4.67;;
3121;SDS011;1571;52.524;14.104;2023-02-20T03:08:25;9.20;;;5.20;;
3121;SDS011;1571;52.524;14.104;2023-02-20T03:10:59;7.17;;;4.43;;
3121;SDS011;1571;52.524;14.104;2023-02-20T03:13:31;3.13;;;2.83;;
3121;SDS011;1571;52.524;14.104;2023-02-20T03:16:21;4.67;;;3.30;;
3121;SDS011;1571;52.524;14.104;2023-02-20T03:18:56;6.00;;;3.43;;
3121;SDS011;1571;52.524;14.104;2023-02-20T03:21:29;8.10;;;3.77;;
3121;SDS011;1571;52.524;14.104;2023-02-20T03:24:00;7.03;;;5.17;;
3121;SDS011;1571;52.524;14.104;2023-02-20T03:26:32;4.63;;;3.37;;
3121;SDS011;1571;52.524;14.104;2023-02-20T03:29:06;4.90;;;3.60;;
3121;SDS011;1571;52.524;14.104;2023-02-20T03:31:40;6.47;;;3.47;;
3121;SDS011;1571;52.524;14.104;2023-02-20T03:34:13;5.97;;;3.87;;
3121;SDS011;1571;52.524;14.104;2023-02-20T03:37:04;6.43;;;4.37;;
3121;SDS011;1571;52.524;14.104;2023-02-20T03:39:56;4.93;;;3.20;;
3121;SDS011;1571;52.524;14.104;2023-02-20T03:42:47;5.13;;;3.37;;
3121;SDS011;1571;52.524;14.104;2023-02-20T03:45:38;6.17;;;3.67;;
3121;SDS011;1571;52.524;14.104;2023-02-20T03:48:13;5.77;;;3.83;;
3121;SDS011;1571;52.524;14.104;2023-02-20T03:50:43;5.87;;;4.03;;
3121;SDS011;1571;52.524;14.104;2023-02-20T03:53:12;6.30;;;4.70;;
3121;SDS011;1571;52.524;14.104;2023-02-20T03:55:42;7.47;;;5.63;;
3121;SDS011;1571;52.524;14.104;2023-02-20T03:58:13;5.20;;;4.70;;
3121;SDS011;1571;52.524;14.104;2023-02-20T04:00:51;7.53;;;4.33;;
3121;SDS011;1571;52.524;14.104;2023-02-20T04:03:24;7.60;;;4.93;;
3121;SDS011;1571;52.524;14.104;2023-02-20T04:05:56;7.80;;;4.60;;
3121;SDS011;1571;52.524;14.104;2023-02-20T04:08:33;7.10;;;4.60;;
3121;SDS011;1571;52.524;14.104;2023-02-20T04:11:07;7.40;;;4.93;;
3121;SDS011;1571;52.524;14.104;2023-02-20T04:13:38;8.30;;;4.97;;
3121;SDS011;1571;52.524;14.104;2023-02-20T04:16:07;10.20;;;5.20;;
3121;SDS011;1571;52.524;14.104;2023-02-20T04:18:37;7.50;;;5.50;;
3121;SDS011;1571;52.524;14.104;2023-02-20T04:21:06;6.20;;;4.40;;
3121;SDS011;1571;52.524;14.104;2023-02-20T04:23:43;8.43;;;5.40;;
3121;SDS011;1571;52.524;14.104;2023-02-20T04:26:16;7.13;;;4.67;;
3121;SDS011;1571;52.524;14.104;2023-02-20T04:28:49;6.13;;;4.60;;
3121;SDS011;1571;52.524;14.104;2023-02-20T04:31:19;7.53;;;4.77;;
3121;SDS011;1571;52.524;14.104;2023-02-20T04:33:49;8.50;;;4.53;;
3121;SDS011;1571;52.524;14.104;2023-02-20T04:36:21;7.33;;;5.17;;
3121;SDS011;1571;52.524;14.104;2023-02-20T04:38:51;5.27;;;3.90;;
3121;SDS011;1571;52.524;14.104;2023-02-20T04:41:25;7.40;;;4.60;;
3121;SDS011;1571;52.524;14.104;2023-02-20T04:43:53;7.47;;;4.87;;
3121;SDS011;1571;52.524;14.104;2023-02-20T04:46:43;6.37;;;3.60;;
3121;SDS011;1571;52.524;14.104;2023-02-20T04:49:13;6.87;;;4.83;;
3121;SDS011;1571;52.524;14.104;2023-02-20T04:51:46;7.20;;;4.80;;
3121;SDS011;1571;52.524;14.104;2023-02-20T04:54:14;7.13;;;5.10;;
3121;SDS011;1571;52.524;14.104;2023-02-20T04:56:44;7.27;;;5.20;;
3121;SDS011;1571;52.524;14.104;2023-02-20T04:59:13;6.60;;;4.70;;
3121;SDS011;1571;52.524;14.104;2023-02-20T05:01:42;10.97;;;4.67;;
3121;SDS011;1571;52.524;14.104;2023-02-20T05:04:14;13.00;;;6.57;;
3121;SDS011;1571;52.524;14.104;2023-02-20T05:06:43;9.03;;;6.10;;
3121;SDS011;1571;52.524;14.104;2023-02-20T05:09:13;7.30;;;5.27;;
3121;SDS011;1571;52.524;14.104;2023-02-20T05:11:42;9.13;;;5.80;;
3121;SDS011;1571;52.524;14.104;2023-02-20T05:14:11;7.00;;;5.30;;
3121;SDS011;1571;52.524;14.104;2023-02-20T05:16:40;8.40;;;6.17;;
3121;SDS011;1571;52.524;14.104;2023-02-20T05:19:11;6.43;;;4.50;;
3121;SDS011;1571;52.524;14.104;2023-02-20T05:21:40;7.50;;;4.30;;
3121;SDS011;1571;52.524;14.104;2023-02-20T05:24:27;6.00;;;4.93;;
3121;SDS011;1571;52.524;14.104;2023-02-20T05:26:55;8.03;;;4.60;;
3121;SDS011;1571;52.524;14.104;2023-02-20T05:29:25;9.13;;;5.00;;
3121;SDS011;1571;52.524;14.104;2023-02-20T05:31:54;6.67;;;4.23;;
3121;SDS011;1571;52.524;14.104;2023-02-20T05:34:22;8.83;;;5.60;;
3121;SDS011;1571;52.524;14.104;2023-02-20T05:36:52;7.77;;;5.57;;
3121;SDS011;1571;52.524;14.104;2023-02-20T05:39:22;6.20;;;4.17;;
3121;SDS011;1571;52.524;14.104;2023-02-20T05:41:51;8.90;;;5.77;;
3121;SDS011;1571;52.524;14.104;2023-02-20T05:44:19;10.70;;;7.00;;
3121;SDS011;1571;52.524;14.104;2023-02-20T05:46:48;7.90;;;4.90;;
3121;SDS011;1571;52.524;14.104;2023-02-20T05:49:17;17.43;;;5.87;;
3121;SDS011;1571;52.524;14.104;2023-02-20T05:51:45;6.53;;;5.33;;
3121;SDS011;1571;52.524;14.104;2023-02-20T05:54:15;8.83;;;6.30;;
3121;SDS011;1571;52.524;14.104;2023-02-20T05:56:44;6.67;;;5.00;;
3121;SDS011;1571;52.524;14.104;2023-02-20T05:59:13;6.73;;;5.10;;
3121;SDS011;1571;52.524;14.104;2023-02-20T06:01:45;7.90;;;6.07;;
3121;SDS011;1571;52.524;14.104;2023-02-20T06:04:15;8.83;;;6.70;;
3121;SDS011;1571;52.524;14.104;2023-02-20T06:06:43;7.77;;;5.40;;
3121;SDS011;1571;52.524;14.104;2023-02-20T06:09:11;13.20;;;9.10;;
3121;SDS011;1571;52.524;14.104;2023-02-20T06:11:46;6.37;;;4.43;;
3121;SDS011;1571;52.524;14.104;2023-02-20T06:14:16;9.03;;;5.80;;
3121;SDS011;1571;52.524;14.104;2023-02-20T06:16:46;7.23;;;6.37;;
3121;SDS011;1571;52.524;14.104;2023-02-20T06:19:19;8.43;;;7.07;;
3121;SDS011;1571;52.524;14.104;2023-02-20T06:21:49;9.90;;;6.70;;
3121;SDS011;1571;52.524;14.104;2023-02-20T06:24:19;11.23;;;8.37;;
3121;SDS011;1571;52.524;14.104;2023-02-20T06:26:48;12.53;;;8.50;;
3121;SDS011;1571;52.524;14.104;2023-02-20T06:29:16;11.33;;;8.30;;
3121;SDS011;1571;52.524;14.104;2023-02-20T06:31:45;14.30;;;7.27;;
3121;SDS011;1571;52.524;14.104;2023-02-20T06:34:14;10.77;;;8.30;;
3121;SDS011;1571;52.524;14.104;2023-02-20T06:36:44;11.30;;;7.57;;
3121;SDS011;1571;52.524;14.104;2023-02-20T06:39:13;9.50;;;6.53;;
3121;SDS011;1571;52.524;14.104;2023-02-20T06:41:41;7.53;;;5.33;;
3121;SDS011;1571;52.524;14.104;2023-02-20T06:44:10;8.40;;;6.90;;
3121;SDS011;1571;52.524;14.104;2023-02-20T06:46:38;8.80;;;7.70;;
3121;SDS011;1571;52.524;14.104;2023-02-20T06:49:06;10.47;;;6.93;;
3121;SDS011;1571;52.524;14.104;2023-02-20T06:51:34;8.80;;;5.80;;
3121;SDS011;1571;52.524;14.104;2023-02-20T06:54:04;9.17;;;6.80;;
3121;SDS011;1571;52.524;14.104;2023-02-20T06:56:34;10.43;;;6.93;;
3121;SDS011;1571;52.524;14.104;2023-02-20T06:59:03;10.10;;;6.87;;
3121;SDS011;1571;52.524;14.104;2023-02-20T07:01:38;9.77;;;6.97;;
3121;SDS011;1571;52.524;14.104;2023-02-20T07:04:12;11.60;;;6.87;;
3121;SDS011;1571;52.524;14.104;2023-02-20T07:06:43;9.57;;;6.87;;
3121;SDS011;1571;52.524;14.104;2023-02-20T07:09:13;12.20;;;7.80;;
3121;SDS011;1571;52.524;14.104;2023-02-20T07:11:42;10.60;;;7.00;;
3121;SDS011;1571;52.524;14.104;2023-02-20T07:14:11;12.73;;;7.70;;
3121;SDS011;1571;52.524;14.104;2023-02-20T07:16:40;14.00;;;9.00;;
3121;SDS011;1571;52.524;14.104;2023-02-20T07:19:08;11.67;;;7.30;;
3121;SDS011;1571;52.524;14.104;2023-02-20T07:21:37;15.17;;;10.10;;
3121;SDS011;1571;52.524;14.104;2023-02-20T07:24:05;13.33;;;8.93;;
3121;SDS011;1571;52.524;14.104;2023-02-20T07:26:36;12.43;;;7.87;;
3121;SDS011;1571;52.524;14.104;2023-02-20T07:29:05;12.90;;;7.77;;
3121;SDS011;1571;52.524;14.104;2023-02-20T07:31:34;11.87;;;8.03;;
3121;SDS011;1571;52.524;14.104;2023-02-20T07:34:02;8.50;;;6.83;;
3121;SDS011;1571;52.524;14.104;2023-02-20T07:36:35;13.07;;;8.80;;
3121;SDS011;1571;52.524;14.104;2023-02-20T07:39:04;11.90;;;9.50;;
3121;SDS011;1571;52.524;14.104;2023-02-20T07:41:33;12.83;;;8.30;;
3121;SDS011;1571;52.524;14.104;2023-02-20T07:44:05;12.30;;;8.30;;
3121;SDS011;1571;52.524;14.104;2023-02-20T07:46:34;11.70;;;9.23;;
3121;SDS011;1571;52.524;14.104;2023-02-20T07:49:02;11.90;;;7.80;;
3121;SDS011;1571;52.524;14.104;2023-02-20T07:51:32;11.90;;;8.67;;
3121;SDS011;1571;52.524;14.104;2023-02-20T07:54:00;10.90;;;8.23;;
3121;SDS011;1571;52.524;14.104;2023-02-20T07:56:28;14.50;;;8.93;;
3121;SDS011;1571;52.524;14.104;2023-02-20T07:58:57;10.50;;;8.30;;
3121;SDS011;1571;52.524;14.104;2023-02-20T08:01:28;12.97;;;8.53;;
3121;SDS011;1571;52.524;14.104;2023-02-20T08:03:56;13.10;;;9.30;;
3121;SDS011;1571;52.524;14.104;2023-02-20T08:06:24;10.10;;;7.67;;
3121;SDS011;1571;52.524;14.104;2023-02-20T08:08:54;11.30;;;7.87;;
3121;SDS011;1571;52.524;14.104;2023-02-20T08:11:22;9.53;;;6.97;;
3121;SDS011;1571;52.524;14.104;2023-02-20T08:13:51;13.70;;;8.20;;
3121;SDS011;1571;52.524;14.104;2023-02-20T08:16:21;9.33;;;7.93;;
3121;SDS011;1571;52.524;14.104;2023-02-20T08:18:51;11.47;;;7.10;;
3121;SDS011;1571;52.524;14.104;2023-02-20T08:21:20;11.20;;;7.43;;
3121;SDS011;1571;52.524;14.104;2023-02-20T08:23:48;12.57;;;6.90;;
3121;SDS011;1571;52.524;14.104;2023-02-20T08:26:18;9.73;;;7.17;;
3121;SDS011;1571;52.524;14.104;2023-02-20T08:28:46;8.23;;;6.50;;
3121;SDS011;1571;52.524;14.104;2023-02-20T08:31:15;8.83;;;7.03;;
3121;SDS011;1571;52.524;14.104;2023-02-20T08:33:58;7.83;;;5.53;;
3121;SDS011;1571;52.524;14.104;2023-02-20T08:36:26;11.53;;;7.73;;
3121;SDS011;1571;52.524;14.104;2023-02-20T08:38:55;9.47;;;6.40;;
3121;SDS011;1571;52.524;14.104;2023-02-20T08:41:23;8.50;;;6.67;;
3121;SDS011;1571;52.524;14.104;2023-02-20T08:43:51;8.93;;;6.57;;
3121;SDS011;1571;52.524;14.104;2023-02-20T08:46:20;7.27;;;5.90;;
3121;SDS011;1571;52.524;14.104;2023-02-20T08:48:53;7.63;;;6.00;;
3121;SDS011;1571;52.524;14.104;2023-02-20T08:51:22;9.47;;;6.57;;
3121;SDS011;1571;52.524;14.104;2023-02-20T08:53:52;6.80;;;6.20;;
3121;SDS011;1571;52.524;14.104;2023-02-20T08:56:20;8.93;;;7.50;;
3121;SDS011;1571;52.524;14.104;2023-02-20T08:58:48;7.90;;;5.43;;
3121;SDS011;1571;52.524;14.104;2023-02-20T09:01:16;9.90;;;7.63;;
3121;SDS011;1571;52.524;14.104;2023-02-20T09:03:45;9.40;;;6.80;;
3121;SDS011;1571;52.524;14.104;2023-02-20T09:06:15;10.27;;;5.90;;
3121;SDS011;1571;52.524;14.104;2023-02-20T09:08:44;7.93;;;5.87;;
3121;SDS011;1571;52.524;14.104;2023-02-20T09:11:13;8.40;;;6.30;;
3121;SDS011;1571;52.524;14.104;2023-02-20T09:13:41;8.07;;;6.20;;
3121;SDS011;1571;52.524;14.104;2023-02-20T09:16:10;7.27;;;4.87;;
3121;SDS011;1571;52.524;14.104;2023-02-20T09:18:40;7.13;;;5.70;;
3121;SDS011;1571;52.524;14.104;2023-02-20T09:21:08;10.70;;;7.47;;
3121;SDS011;1571;52.524;14.104;2023-02-20T09:23:37;5.77;;;4.63;;
3121;SDS011;1571;52.524;14.104;2023-02-20T09:26:07;10.17;;;4.90;;
3121;SDS011;1571;52.524;14.104;2023-02-20T09:28:36;6.50;;;4.60;;
3121;SDS011;1571;52.524;14.104;2023-02-20T09:31:04;5.67;;;5.07;;
3121;SDS011;1571;52.524;14.104;2023-02-20T09:33:33;6.30;;;4.07;;
3121;SDS011;1571;52.524;14.104;2023-02-20T09:36:01;4.93;;;3.47;;
3121;SDS011;1571;52.524;14.104;2023-02-20T09:38:29;4.80;;;3.70;;
3121;SDS011;1571;52.524;14.104;2023-02-20T09:40:58;4.90;;;4.40;;
3121;SDS011;1571;52.524;14.104;2023-02-20T09:43:31;4.07;;;3.67;;
3121;SDS011;1571;52.524;14.104;2023-02-20T09:46:08;5.63;;;3.67;;
3121;SDS011;1571;52.524;14.104;2023-02-20T09:51:33;5.00;;;3.80;;
3121;SDS011;1571;52.524;14.104;2023-02-20T09:54:04;2.90;;;2.60;;
3121;SDS011;1571;52.524;14.104;2023-02-20T09:56:38;5.70;;;3.50;;
3121;SDS011;1571;52.524;14.104;2023-02-20T09:59:11;3.67;;;3.07;;
3121;SDS011;1571;52.524;14.104;2023-02-20T10:01:42;3.73;;;2.87;;
3121;SDS011;1571;52.524;14.104;2023-02-20T10:04:20;3.67;;;3.27;;
3121;SDS011;1571;52.524;14.104;2023-02-20T10:06:50;2.83;;;2.60;;
3121;SDS011;1571;52.524;14.104;2023-02-20T10:09:21;3.13;;;1.73;;
3121;SDS011;1571;52.524;14.104;2023-02-20T10:11:57;3.93;;;2.50;;
3121;SDS011;1571;52.524;14.104;2023-02-20T10:14:39;1.80;;;1.67;;
3121;SDS011;1571;52.524;14.104;2023-02-20T10:17:22;4.07;;;2.60;;
3121;SDS011;1571;52.524;14.104;2023-02-20T10:19:59;2.80;;;2.13;;
3121;SDS011;1571;52.524;14.104;2023-02-20T10:22:38;3.33;;;2.30;;
3121;SDS011;1571;52.524;14.104;2023-02-20T10:25:17;4.77;;;3.10;;
3121;SDS011;1571;52.524;14.104;2023-02-20T10:27:51;4.33;;;2.47;;
3121;SDS011;1571;52.524;14.104;2023-02-20T10:30:24;2.60;;;2.37;;
3121;SDS011;1571;52.524;14.104;2023-02-20T10:32:58;3.03;;;2.37;;
3121;SDS011;1571;52.524;14.104;2023-02-20T10:35:32;3.50;;;3.23;;
3121;SDS011;1571;52.524;14.104;2023-02-20T10:38:06;2.83;;;1.40;;
3121;SDS011;1571;52.524;14.104;2023-02-20T10:40:38;3.10;;;2.67;;
3121;SDS011;1571;52.524;14.104;2023-02-20T10:43:14;4.70;;;2.90;;
3121;SDS011;1571;52.524;14.104;2023-02-20T10:45:50;3.60;;;2.80;;
3121;SDS011;1571;52.524;14.104;2023-02-20T10:48:22;4.40;;;2.23;;
3121;SDS011;1571;52.524;14.104;2023-02-20T10:50:59;3.90;;;2.50;;
3121;SDS011;1571;52.524;14.104;2023-02-20T10:53:33;3.30;;;2.97;;
3121;SDS011;1571;52.524;14.104;2023-02-20T10:56:07;2.57;;;2.37;;
3121;SDS011;1571;52.524;14.104;2023-02-20T10:58:40;2.40;;;2.13;;
3121;SDS011;1571;52.524;14.104;2023-02-20T11:01:16;4.37;;;2.30;;
3121;SDS011;1571;52.524;14.104;2023-02-20T11:03:51;3.83;;;2.60;;
3121;SDS011;1571;52.524;14.104;2023-02-20T11:06:26;2.57;;;2.37;;
3121;SDS011;1571;52.524;14.104;2023-02-20T11:08:58;3.67;;;2.80;;
3121;SDS011;1571;52.524;14.104;2023-02-20T11:11:30;2.77;;;2.57;;
3121;SDS011;1571;52.524;14.104;2023-02-20T11:14:04;3.00;;;2.70;;
3121;SDS011;1571;52.524;14.104;2023-02-20T11:16:41;4.80;;;2.80;;
3121;SDS011;1571;52.524;14.104;2023-02-20T11:19:15;3.50;;;2.57;;
3121;SDS011;1571;52.524;14.104;2023-02-20T11:21:48;4.50;;;2.77;;
3121;SDS011;1571;52.524;14.104;2023-02-20T11:24:19;2.37;;;2.17;;
3121;SDS011;1571;52.524;14.104;2023-02-20T11:26:57;4.43;;;3.50;;
3121;SDS011;1571;52.524;14.104;2023-02-20T11:29:32;3.20;;;2.90;;
3121;SDS011;1571;52.524;14.104;2023-02-20T11:35:08;2.97;;;2.67;;
3121;SDS011;1571;52.524;14.104;2023-02-20T11:37:46;4.30;;;2.07;;
3121;SDS011;1571;52.524;14.104;2023-02-20T11:40:23;3.83;;;2.80;;
3121;SDS011;1571;52.524;14.104;2023-02-20T11:42:54;2.90;;;2.70;;
3121;SDS011;1571;52.524;14.104;2023-02-20T11:45:24;2.30;;;2.10;;
3121;SDS011;1571;52.524;14.104;2023-02-20T11:48:08;4.00;;;2.73;;
3121;SDS011;1571;52.524;14.104;2023-02-20T11:50:39;3.70;;;3.40;;
3121;SDS011;1571;52.524;14.104;2023-02-20T11:53:16;5.77;;;3.43;;
3121;SDS011;1571;52.524;14.104;2023-02-20T11:55:46;4.53;;;2.70;;
3121;SDS011;1571;52.524;14.104;2023-02-20T11:58:26;5.33;;;3.00;;
3121;SDS011;1571;52.524;14.104;2023-02-20T12:00:55;3.03;;;2.83;;
3121;SDS011;1571;52.524;14.104;2023-02-20T12:03:25;3.50;;;3.00;;
3121;SDS011;1571;52.524;14.104;2023-02-20T12:05:55;3.27;;;2.83;;
3121;SDS011;1571;52.524;14.104;2023-02-20T12:08:30;5.80;;;4.53;;
3121;SDS011;1571;52.524;14.104;2023-02-20T12:11:07;5.10;;;3.27;;
3121;SDS011;1571;52.524;14.104;2023-02-20T12:13:40;5.90;;;3.03;;
3121;SDS011;1571;52.524;14.104;2023-02-20T12:16:20;4.13;;;3.57;;
3121;SDS011;1571;52.524;14.104;2023-02-20T12:19:00;7.60;;;3.80;;
3121;SDS011;1571;52.524;14.104;2023-02-20T12:21:39;4.30;;;3.73;;
3121;SDS011;1571;52.524;14.104;2023-02-20T12:24:26;4.27;;;3.87;;
3121;SDS011;1571;52.524;14.104;2023-02-20T12:27:07;5.47;;;2.83;;
3121;SDS011;1571;52.524;14.104;2023-02-20T12:29:46;3.73;;;3.03;;
3121;SDS011;1571;52.524;14.104;2023-02-20T12:32:25;4.90;;;3.70;;
3121;SDS011;1571;52.524;14.104;2023-02-20T12:35:05;9.07;;;4.47;;
3121;SDS011;1571;52.524;14.104;2023-02-20T12:37:47;5.50;;;4.40;;
3121;SDS011;1571;52.524;14.104;2023-02-20T12:40:26;6.13;;;4.03;;
3121;SDS011;1571;52.524;14.104;2023-02-20T12:43:06;4.87;;;3.70;;
3121;SDS011;1571;52.524;14.104;2023-02-20T12:45:46;6.33;;;4.57;;
3121;SDS011;1571;52.524;14.104;2023-02-20T12:48:23;6.20;;;4.63;;
3121;SDS011;1571;52.524;14.104;2023-02-20T12:51:05;5.43;;;5.03;;
3121;SDS011;1571;52.524;14.104;2023-02-20T12:53:50;5.47;;;4.23;;
3121;SDS011;1571;52.524;14.104;2023-02-20T12:56:32;4.97;;;4.33;;
3121;SDS011;1571;52.524;14.104;2023-02-20T12:59:13;6.53;;;4.90;;
3121;SDS011;1571;52.524;14.104;2023-02-20T13:01:52;4.90;;;4.20;;
3121;SDS011;1571;52.524;14.104;2023-02-20T13:04:24;4.90;;;4.40;;
3121;SDS011;1571;52.524;14.104;2023-02-20T13:07:02;5.17;;;4.70;;
3121;SDS011;1571;52.524;14.104;2023-02-20T13:09:33;5.33;;;4.07;;
3121;SDS011;1571;52.524;14.104;2023-02-20T13:12:05;6.80;;;4.43;;
3121;SDS011;1571;52.524;14.104;2023-02-20T13:14:47;7.10;;;4.50;;
3121;SDS011;1571;52.524;14.104;2023-02-20T13:17:25;10.33;;;5.27;;
3121;SDS011;1571;52.524;14.104;2023-02-20T13:19:59;7.07;;;5.33;;
3121;SDS011;1571;52.524;14.104;2023-02-20T13:22:39;6.83;;;5.37;;
3121;SDS011;1571;52.524;14.104;2023-02-20T13:28:20;9.57;;;5.83;;
3121;SDS011;1571;52.524;14.104;2023-02-20T13:31:05;10.17;;;6.50;;
3121;SDS011;1571;52.524;14.104;2023-02-20T13:33:35;7.97;;;5.63;;
3121;SDS011;1571;52.524;14.104;2023-02-20T13:36:05;8.40;;;7.43;;
3121;SDS011;1571;52.524;14.104;2023-02-20T13:41:56;10.50;;;6.73;;
3121;SDS011;1571;52.524;14.104;2023-02-20T13:44:33;11.27;;;6.50;;
3121;SDS011;1571;52.524;14.104;2023-02-20T13:47:27;9.57;;;7.20;;
3121;SDS011;1571;52.524;14.104;2023-02-20T13:50:02;11.63;;;7.17;;
3121;SDS011;1571;52.524;14.104;2023-02-20T13:52:45;8.97;;;6.83;;
3121;SDS011;1571;52.524;14.104;2023-02-20T13:55:16;11.17;;;6.80;;
3121;SDS011;1571;52.524;14.104;2023-02-20T13:57:51;11.20;;;6.77;;
3121;SDS011;1571;52.524;14.104;2023-02-20T14:00:23;8.57;;;7.70;;
3121;SDS011;1571;52.524;14.104;2023-02-20T14:02:55;8.17;;;6.90;;
3121;SDS011;1571;52.524;14.104;2023-02-20T14:05:25;9.30;;;6.80;;
3121;SDS011;1571;52.524;14.104;2023-02-20T14:07:55;7.17;;;4.43;;
3121;SDS011;1571;52.524;14.104;2023-02-20T14:10:25;8.30;;;7.20;;
3121;SDS011;1571;52.524;14.104;2023-02-20T14:12:58;8.40;;;6.43;;
3121;SDS011;1571;52.524;14.104;2023-02-20T14:15:30;9.07;;;7.73;;
3121;SDS011;1571;52.524;14.104;2023-02-20T14:18:00;7.77;;;6.90;;
3121;SDS011;1571;52.524;14.104;2023-02-20T14:20:32;7.97;;;7.03;;
3121;SDS011;1571;52.524;14.104;2023-02-20T14:23:09;9.80;;;7.73;;
3121;SDS011;1571;52.524;14.104;2023-02-20T14:25:54;7.77;;;7.00;;
3121;SDS011;1571;52.524;14.104;2023-02-20T14:28:43;8.70;;;7.70;;
3121;SDS011;1571;52.524;14.104;2023-02-20T14:31:20;11.30;;;9.83;;
3121;SDS011;1571;52.524;14.104;2023-02-20T14:33:52;9.90;;;8.33;;
3121;SDS011;1571;52.524;14.104;2023-02-20T14:36:34;10.70;;;8.20;;
3121;SDS011;1571;52.524;14.104;2023-02-20T14:39:17;12.00;;;8.50;;
3121;SDS011;1571;52.524;14.104;2023-02-20T14:41:55;10.77;;;8.63;;
3121;SDS011;1571;52.524;14.104;2023-02-20T14:44:27;11.43;;;9.27;;
3121;SDS011;1571;52.524;14.104;2023-02-20T14:46:57;10.20;;;9.10;;
3121;SDS011;1571;52.524;14.104;2023-02-20T14:49:32;10.33;;;9.23;;
3121;SDS011;1571;52.524;14.104;2023-02-20T14:52:10;9.17;;;8.17;;
3121;SDS011;1571;52.524;14.104;2023-02-20T14:54:42;9.17;;;7.20;;
3121;SDS011;1571;52.524;14.104;2023-02-20T14:57:11;10.57;;;8.20;;
3121;SDS011;1571;52.524;14.104;2023-02-20T14:59:42;11.23;;;9.07;;
3121;SDS011;1571;52.524;14.104;2023-02-20T15:02:14;11.33;;;7.50;;
3121;SDS011;1571;52.524;14.104;2023-02-20T15:05:01;8.57;;;6.30;;
3121;SDS011;1571;52.524;14.104;2023-02-20T15:07:31;7.13;;;6.40;;
3121;SDS011;1571;52.524;14.104;2023-02-20T15:10:00;11.37;;;7.47;;
3121;SDS011;1571;52.524;14.104;2023-02-20T15:12:32;7.80;;;5.77;;
3121;SDS011;1571;52.524;14.104;2023-02-20T15:15:05;6.50;;;4.33;;
3121;SDS011;1571;52.524;14.104;2023-02-20T15:17:39;8.13;;;6.50;;
3121;SDS011;1571;52.524;14.104;2023-02-20T15:20:18;7.30;;;5.83;;
3121;SDS011;1571;52.524;14.104;2023-02-20T15:23:06;9.10;;;7.10;;
3121;SDS011;1571;52.524;14.104;2023-02-20T15:25:41;8.43;;;6.50;;
3121;SDS011;1571;52.524;14.104;2023-02-20T15:28:12;9.60;;;8.00;;
3121;SDS011;1571;52.524;14.104;2023-02-20T15:31:02;8.67;;;4.70;;
3121;SDS011;1571;52.524;14.104;2023-02-20T15:33:33;7.93;;;5.57;;
3121;SDS011;1571;52.524;14.104;2023-02-20T15:36:03;13.00;;;6.17;;
3121;SDS011;1571;52.524;14.104;2023-02-20T15:38:35;7.90;;;5.20;;
3121;SDS011;1571;52.524;14.104;2023-02-20T15:41:04;8.33;;;6.10;;
3121;SDS011;1571;52.524;14.104;2023-02-20T15:43:32;9.03;;;5.30;;
3121;SDS011;1571;52.524;14.104;2023-02-20T15:46:14;7.83;;;5.00;;